createdAt,value
2022-09-01T00:00:12.598Z,99.99
2022-09-01T00:01:12.618Z,99.99
2022-09-01T00:02:12.685Z,99.99
2022-09-01T00:03:12.606Z,99.99
2022-09-01T00:04:12.828Z,99.99
2022-09-01T00:05:12.611Z,99.99
2022-09-01T00:06:12.629Z,99.99
2022-09-01T00:07:12.606Z,99.99
2022-09-01T00:08:12.646Z,99.99
2022-09-01T00:09:12.615Z,99.99
2022-09-01T00:10:15.709Z,99.99
2022-09-01T00:11:12.638Z,99.99
2022-09-01T00:12:12.618Z,99.99
2022-09-01T00:13:12.617Z,99.99
2022-09-01T00:14:32.843Z,99.99
2022-09-01T00:15:12.619Z,99.99
2022-09-01T00:16:12.802Z,99.99
2022-09-01T00:17:12.631Z,99.99
2022-09-01T00:18:12.638Z,99.99
2022-09-01T00:19:13.961Z,99.99
2022-09-01T00:20:14.927Z,99.99
2022-09-01T00:21:15.741Z,99.99
2022-09-01T00:22:12.635Z,99.99
2022-09-01T00:23:12.634Z,99.99
2022-09-01T00:24:12.640Z,99.99
2022-09-01T00:25:12.644Z,99.99
2022-09-01T00:26:12.642Z,99.99
2022-09-01T00:27:12.901Z,99.99
2022-09-01T00:28:12.690Z,99.99
2022-09-01T00:29:12.649Z,99.99
2022-09-01T00:30:12.652Z,99.99
2022-09-01T00:31:12.847Z,99.99
2022-09-01T00:32:15.799Z,99.99
2022-09-01T00:33:12.699Z,99.99
2022-09-01T00:34:12.652Z,99.99
2022-09-01T00:35:12.659Z,99.99
2022-09-01T00:36:12.655Z,99.99
2022-09-01T00:37:12.658Z,99.99
2022-09-01T00:38:12.669Z,99.99
2022-09-01T00:39:12.691Z,99.99
2022-09-01T00:40:12.769Z,99.99
2022-09-01T00:41:12.675Z,99.99
2022-09-01T00:42:12.671Z,99.99
2022-09-01T00:43:15.462Z,99.99
2022-09-01T00:44:12.674Z,99.99
2022-09-01T00:45:12.676Z,99.99
2022-09-01T00:46:13.196Z,99.99
2022-09-01T00:47:12.960Z,99.99
2022-09-01T00:48:13.456Z,99.99
2022-09-01T00:49:12.687Z,99.99
2022-09-01T00:50:12.689Z,99.99
2022-09-01T00:51:12.687Z,99.99
2022-09-01T00:52:12.703Z,99.99
2022-09-01T00:53:12.690Z,99.99
2022-09-01T00:54:15.478Z,99.99
2022-09-01T00:55:12.717Z,99.99
2022-09-01T00:56:12.697Z,99.99
2022-09-01T00:57:12.736Z,99.99
2022-09-01T00:58:22.273Z,99.99
2022-09-01T00:59:12.706Z,99.99
2022-09-01T01:00:12.704Z,99.99
2022-09-01T01:01:12.820Z,99.99
2022-09-01T01:02:12.869Z,99.99
2022-09-01T01:03:12.720Z,99.99
2022-09-01T01:04:12.717Z,99.99
2022-09-01T01:05:16.457Z,99.99
2022-09-01T01:06:12.734Z,99.99
2022-09-01T01:07:12.739Z,99.99
2022-09-01T01:08:12.764Z,99.99
2022-09-01T01:09:12.722Z,99.99
2022-09-01T01:10:12.720Z,99.99
2022-09-01T01:11:12.730Z,99.99
2022-09-01T01:12:12.742Z,99.99
2022-09-01T01:13:12.721Z,99.99
2022-09-01T01:14:12.728Z,99.99
2022-09-01T01:15:12.728Z,99.99
2022-09-01T01:16:12.752Z,99.99
2022-09-01T01:17:12.767Z,99.99
2022-09-01T01:18:12.770Z,99.99
2022-09-01T01:19:12.744Z,99.99
2022-09-01T01:20:12.745Z,99.99
2022-09-01T01:21:12.747Z,99.99
2022-09-01T01:22:12.763Z,99.99
2022-09-01T01:23:12.740Z,99.99
2022-09-01T01:24:12.745Z,99.99
2022-09-01T01:25:12.753Z,99.99
2022-09-01T01:26:15.672Z,99.99
2022-09-01T01:27:12.770Z,99.99
2022-09-01T01:28:12.789Z,99.99
2022-09-01T01:29:12.756Z,99.99
2022-09-01T01:30:12.755Z,99.99
2022-09-01T01:31:12.955Z,99.99
2022-09-01T01:32:12.775Z,99.99
2022-09-01T01:33:13.868Z,99.99
2022-09-01T01:34:12.773Z,99.99
2022-09-01T01:35:12.758Z,99.99
2022-09-01T01:36:12.777Z,99.99
2022-09-01T01:37:16.248Z,99.99
2022-09-01T01:38:12.832Z,99.99
2022-09-01T01:39:12.775Z,99.99
2022-09-01T01:40:12.830Z,99.99
2022-09-01T01:41:12.782Z,99.99
2022-09-01T01:42:12.793Z,99.99
2022-09-01T01:43:12.778Z,99.99
2022-09-01T01:44:12.784Z,99.99
2022-09-01T01:45:12.792Z,99.99
2022-09-01T01:46:13.046Z,99.99
2022-09-01T01:47:12.807Z,99.99
2022-09-01T01:48:12.788Z,99.99
2022-09-01T01:49:12.791Z,99.99
2022-09-01T01:50:12.799Z,99.99
2022-09-01T01:51:12.821Z,99.99
2022-09-01T01:52:12.814Z,99.99
2022-09-01T01:53:13.922Z,99.99
2022-09-01T01:54:12.800Z,99.99
2022-09-01T01:55:12.803Z,99.99
2022-09-01T01:56:12.806Z,99.99
2022-09-01T01:57:12.821Z,99.99
2022-09-01T01:58:12.853Z,99.99
2022-09-01T01:59:12.813Z,99.99
2022-09-01T02:00:12.807Z,99.99
2022-09-01T02:01:12.992Z,99.99
2022-09-01T02:02:13.007Z,99.99
2022-09-01T02:03:12.855Z,99.99
2022-09-01T02:04:15.906Z,99.99
2022-09-01T02:05:12.887Z,99.99
2022-09-01T02:06:12.835Z,99.99
2022-09-01T02:07:12.837Z,99.99
2022-09-01T02:08:12.879Z,99.99
2022-09-01T02:09:12.827Z,99.99
2022-09-01T02:10:12.861Z,99.99
2022-09-01T02:11:12.844Z,99.99
2022-09-01T02:12:14.319Z,99.99
2022-09-01T02:13:12.838Z,99.99
2022-09-01T02:14:12.830Z,99.99
2022-09-01T02:15:15.647Z,99.99
2022-09-01T02:16:13.190Z,99.99
2022-09-01T02:17:12.971Z,99.99
2022-09-01T02:18:12.846Z,99.99
2022-09-01T02:19:12.839Z,99.99
2022-09-01T02:20:12.851Z,99.99
2022-09-01T02:21:19.307Z,99.99
2022-09-01T02:22:12.867Z,99.99
2022-09-01T02:23:13.043Z,99.99
2022-09-01T02:24:12.854Z,99.99
2022-09-01T02:25:12.851Z,99.99
2022-09-01T02:26:19.207Z,99.99
2022-09-01T02:27:12.880Z,99.99
2022-09-01T02:28:12.936Z,99.99
2022-09-01T02:29:12.861Z,99.99
2022-09-01T02:30:12.869Z,99.99
2022-09-01T02:31:13.163Z,99.99
2022-09-01T02:32:12.882Z,99.99
2022-09-01T02:33:14.180Z,99.99
2022-09-01T02:34:12.876Z,99.99
2022-09-01T02:35:12.872Z,99.99
2022-09-01T02:36:12.881Z,99.99
2022-09-01T02:37:15.722Z,99.99
2022-09-01T02:38:12.902Z,99.99
2022-09-01T02:39:14.350Z,99.99
2022-09-01T02:40:13.009Z,99.99
2022-09-01T02:41:12.888Z,99.99
2022-09-01T02:42:12.884Z,99.99
2022-09-01T02:43:12.889Z,99.99
2022-09-01T02:44:12.896Z,99.99
2022-09-01T02:45:12.889Z,99.99
2022-09-01T02:46:13.036Z,99.99
2022-09-01T02:47:12.892Z,99.99
2022-09-01T02:48:15.991Z,99.99
2022-09-01T02:49:12.903Z,99.99
2022-09-01T02:50:12.911Z,99.99
2022-09-01T02:51:12.896Z,99.99
2022-09-01T02:52:12.898Z,99.99
2022-09-01T02:53:12.902Z,99.99
2022-09-01T02:54:12.907Z,99.99
2022-09-01T02:55:12.912Z,99.99
2022-09-01T02:56:12.907Z,99.99
2022-09-01T02:57:12.902Z,99.99
2022-09-01T02:58:15.321Z,99.99
2022-09-01T02:59:15.918Z,99.99
2022-09-01T03:00:12.911Z,99.99
2022-09-01T03:01:13.013Z,99.99
2022-09-01T03:02:12.920Z,99.99
2022-09-01T03:03:12.927Z,99.99
2022-09-01T03:04:12.921Z,99.99
2022-09-01T03:05:13.119Z,99.99
2022-09-01T03:06:12.924Z,99.99
2022-09-01T03:07:12.932Z,99.99
2022-09-01T03:08:12.948Z,99.99
2022-09-01T03:09:13.798Z,99.99
2022-09-01T03:10:15.684Z,99.99
2022-09-01T03:11:15.602Z,99.99
2022-09-01T03:12:12.934Z,99.99
2022-09-01T03:13:12.936Z,99.99
2022-09-01T03:14:12.948Z,99.99
2022-09-01T03:15:15.544Z,99.99
2022-09-01T03:16:13.065Z,99.99
2022-09-01T03:17:12.951Z,99.99
2022-09-01T03:18:12.966Z,99.99
2022-09-01T03:19:12.950Z,99.99
2022-09-01T03:20:12.952Z,99.99
2022-09-01T03:21:15.775Z,99.99
2022-09-01T03:22:12.967Z,99.99
2022-09-01T03:23:12.971Z,99.99
2022-09-01T03:24:12.958Z,99.99
2022-09-01T03:25:12.958Z,99.99
2022-09-01T03:26:12.976Z,99.99
2022-09-01T03:27:12.955Z,99.99
2022-09-01T03:28:13.017Z,99.99
2022-09-01T03:29:12.965Z,99.99
2022-09-01T03:30:12.970Z,99.99
2022-09-01T03:31:12.967Z,99.99
2022-09-01T03:32:13.118Z,99.99
2022-09-01T03:33:12.985Z,99.99
2022-09-01T03:34:12.979Z,99.99
2022-09-01T03:35:12.971Z,99.99
2022-09-01T03:36:17.772Z,99.99
2022-09-01T03:37:13.030Z,99.99
2022-09-01T03:38:13.055Z,99.99
2022-09-01T03:39:18.764Z,99.99
2022-09-01T03:40:13.116Z,99.99
2022-09-01T03:41:13.362Z,99.99
2022-09-01T03:42:12.994Z,99.99
2022-09-01T03:43:13.018Z,99.99
2022-09-01T03:44:12.990Z,99.99
2022-09-01T03:45:12.991Z,99.99
2022-09-01T03:46:13.129Z,99.99
2022-09-01T03:47:12.992Z,99.99
2022-09-01T03:48:13.059Z,99.99
2022-09-01T03:49:13.002Z,99.99
2022-09-01T03:50:13.003Z,99.99
2022-09-01T03:51:13.003Z,99.99
2022-09-01T03:52:13.012Z,99.99
2022-09-01T03:53:15.879Z,99.99
2022-09-01T03:54:13.010Z,99.99
2022-09-01T03:55:13.011Z,99.99
2022-09-01T03:56:13.013Z,99.99
2022-09-01T03:57:16.653Z,99.99
2022-09-01T03:58:13.256Z,99.99
2022-09-01T03:59:14.318Z,99.99
2022-09-01T04:00:13.014Z,99.99
2022-09-01T04:01:16.276Z,99.99
2022-09-01T04:02:13.153Z,99.99
2022-09-01T04:03:13.039Z,99.99
2022-09-01T04:04:15.866Z,99.99
2022-09-01T04:05:13.024Z,99.99
2022-09-01T04:06:13.035Z,99.99
2022-09-01T04:07:21.259Z,99.99
2022-09-01T04:08:13.095Z,99.99
2022-09-01T04:09:13.038Z,99.99
2022-09-01T04:10:13.046Z,99.99
2022-09-01T04:11:13.037Z,99.99
2022-09-01T04:12:13.041Z,99.99
2022-09-01T04:13:14.354Z,99.99
2022-09-01T04:14:13.044Z,99.99
2022-09-01T04:15:13.046Z,99.99
2022-09-01T04:16:13.347Z,99.99
2022-09-01T04:17:13.052Z,99.99
2022-09-01T04:18:13.082Z,99.99
2022-09-01T04:19:13.050Z,99.99
2022-09-01T04:20:13.050Z,99.99
2022-09-01T04:21:13.053Z,99.99
2022-09-01T04:22:13.060Z,99.99
2022-09-01T04:23:13.072Z,99.99
2022-09-01T04:24:13.072Z,99.99
2022-09-01T04:25:13.060Z,99.99
2022-09-01T04:26:13.062Z,99.99
2022-09-01T04:27:13.062Z,99.99
2022-09-01T04:28:13.181Z,99.99
2022-09-01T04:29:13.075Z,99.99
2022-09-01T04:30:13.072Z,99.99
2022-09-01T04:31:13.304Z,99.99
2022-09-01T04:32:13.481Z,99.99
2022-09-01T04:33:13.099Z,99.99
2022-09-01T04:34:13.078Z,99.99
2022-09-01T04:35:13.082Z,99.99
2022-09-01T04:36:13.075Z,99.99
2022-09-01T04:37:13.100Z,99.99
2022-09-01T04:38:13.186Z,99.99
2022-09-01T04:39:14.219Z,99.99
2022-09-01T04:40:13.238Z,99.99
2022-09-01T04:41:13.096Z,99.99
2022-09-01T04:42:16.173Z,99.99
2022-09-01T04:43:13.116Z,99.99
2022-09-01T04:44:13.095Z,99.99
2022-09-01T04:45:16.328Z,99.99
2022-09-01T04:46:13.299Z,99.99
2022-09-01T04:47:13.233Z,99.99
2022-09-01T04:48:13.160Z,99.99
2022-09-01T04:49:15.472Z,99.99
2022-09-01T04:50:13.238Z,99.99
2022-09-01T04:51:13.103Z,99.99
2022-09-01T04:52:15.404Z,99.99
2022-09-01T04:53:14.983Z,99.99
2022-09-01T04:54:13.115Z,99.99
2022-09-01T04:55:13.113Z,99.99
2022-09-01T04:56:13.262Z,99.99
2022-09-01T04:57:13.122Z,99.99
2022-09-01T04:58:13.142Z,99.99
2022-09-01T04:59:13.126Z,99.99
2022-09-01T05:00:13.123Z,99.99
2022-09-01T05:01:13.260Z,99.99
2022-09-01T05:02:13.254Z,99.99
2022-09-01T05:03:13.141Z,99.99
2022-09-01T05:04:18.916Z,99.99
2022-09-01T05:05:13.128Z,99.99
2022-09-01T05:06:13.130Z,99.99
2022-09-01T05:07:13.137Z,99.99
2022-09-01T05:08:13.149Z,99.99
2022-09-01T05:09:13.138Z,99.99
2022-09-01T05:10:13.146Z,99.99
2022-09-01T05:11:13.142Z,99.99
2022-09-01T05:12:15.587Z,99.99
2022-09-01T05:13:13.160Z,99.99
2022-09-01T05:14:13.145Z,99.99
2022-09-01T05:15:15.920Z,99.99
2022-09-01T05:16:13.546Z,99.99
2022-09-01T05:17:13.169Z,99.99
2022-09-01T05:18:13.179Z,99.99
2022-09-01T05:19:13.159Z,99.99
2022-09-01T05:20:13.159Z,99.99
2022-09-01T05:21:13.164Z,99.99
2022-09-01T05:22:13.156Z,99.99
2022-09-01T05:23:13.182Z,99.99
2022-09-01T05:24:13.182Z,99.99
2022-09-01T05:25:13.214Z,99.99
2022-09-01T05:26:13.859Z,99.99
2022-09-01T05:27:13.167Z,99.99
2022-09-01T05:28:13.249Z,99.99
2022-09-01T05:29:13.261Z,99.99
2022-09-01T05:30:13.172Z,99.99
2022-09-01T05:31:13.323Z,99.99
2022-09-01T05:32:13.175Z,99.99
2022-09-01T05:33:13.202Z,99.99
2022-09-01T05:34:16.209Z,99.99
2022-09-01T05:35:13.182Z,99.99
2022-09-01T05:36:13.187Z,99.99
2022-09-01T05:37:16.204Z,99.99
2022-09-01T05:38:13.213Z,99.99
2022-09-01T05:39:13.193Z,99.99
2022-09-01T05:40:14.764Z,99.99
2022-09-01T05:41:13.191Z,99.99
2022-09-01T05:42:13.195Z,99.99
2022-09-01T05:43:13.217Z,99.99
2022-09-01T05:44:13.204Z,99.99
2022-09-01T05:45:13.200Z,99.99
2022-09-01T05:46:13.221Z,99.99
2022-09-01T05:47:22.758Z,99.99
2022-09-01T05:48:14.736Z,99.99
2022-09-01T05:49:13.215Z,99.99
2022-09-01T05:50:16.853Z,99.99
2022-09-01T05:51:46.181Z,99.99
2022-09-01T05:52:13.448Z,99.99
2022-09-01T05:53:15.589Z,99.99
2022-09-01T05:54:13.218Z,99.99
2022-09-01T05:55:13.216Z,99.99
2022-09-01T05:56:13.218Z,99.99
2022-09-01T05:57:35.433Z,99.99
2022-09-01T05:58:13.234Z,99.99
2022-09-01T05:59:29.037Z,99.99
2022-09-01T06:00:13.591Z,99.99
2022-09-01T06:01:13.255Z,99.99
2022-09-01T06:02:13.444Z,99.99
2022-09-01T06:03:13.517Z,99.99
2022-09-01T06:04:13.236Z,99.99
2022-09-01T06:05:13.334Z,99.99
2022-09-01T06:06:13.239Z,99.99
2022-09-01T06:07:16.929Z,99.99
2022-09-01T06:08:13.239Z,99.99
2022-09-01T06:09:13.246Z,99.99
2022-09-01T06:10:13.239Z,99.99
2022-09-01T06:11:13.245Z,99.99
2022-09-01T06:12:13.245Z,99.99
2022-09-01T06:13:13.246Z,99.99
2022-09-01T06:14:13.252Z,99.99
2022-09-01T06:15:13.252Z,99.99
2022-09-01T06:16:13.363Z,99.99
2022-09-01T06:17:13.267Z,99.99
2022-09-01T06:18:13.262Z,99.99
2022-09-01T06:19:13.266Z,99.99
2022-09-01T06:20:16.192Z,99.99
2022-09-01T06:21:13.263Z,99.99
2022-09-01T06:22:13.262Z,99.99
2022-09-01T06:23:13.314Z,99.99
2022-09-01T06:24:13.282Z,99.99
2022-09-01T06:25:13.295Z,99.99
2022-09-01T06:26:13.274Z,99.99
2022-09-01T06:27:13.276Z,99.99
2022-09-01T06:28:13.274Z,99.99
2022-09-01T06:29:13.299Z,99.99
2022-09-01T06:30:13.283Z,99.99
2022-09-01T06:31:16.399Z,99.99
2022-09-01T06:32:13.285Z,99.99
2022-09-01T06:33:13.283Z,99.99
2022-09-01T06:34:13.309Z,99.99
2022-09-01T06:35:13.285Z,99.99
2022-09-01T06:36:13.290Z,99.99
2022-09-01T06:37:13.432Z,99.99
2022-09-01T06:38:13.297Z,99.99
2022-09-01T06:39:13.310Z,99.99
2022-09-01T06:40:13.416Z,99.99
2022-09-01T06:41:13.298Z,99.99
2022-09-01T06:42:16.449Z,99.99
2022-09-01T06:43:13.344Z,99.99
2022-09-01T06:44:16.818Z,99.99
2022-09-01T06:45:13.299Z,99.99
2022-09-01T06:46:13.453Z,99.99
2022-09-01T06:47:13.311Z,99.99
2022-09-01T06:48:13.321Z,99.99
2022-09-01T06:49:13.328Z,99.99
2022-09-01T06:50:13.638Z,99.99
2022-09-01T07:43:07.883Z,89.63
2022-09-01T07:44:07.815Z,89.29
2022-09-01T07:45:47.092Z,90.17
2022-09-01T07:47:58.397Z,90.36
2022-09-01T07:49:35.734Z,90.65
2022-09-01T07:51:41.248Z,90.9
2022-09-01T07:52:40.933Z,91.24
2022-09-01T07:53:40.980Z,92.01
2022-09-01T07:54:40.932Z,92.3
2022-09-01T07:55:40.958Z,92.16
2022-09-01T07:56:42.750Z,92.16
2022-09-01T07:57:40.947Z,91.58
2022-09-01T07:58:40.950Z,91.05
2022-09-01T07:59:40.944Z,92.21
2022-09-01T08:00:44.094Z,91.72
2022-09-01T08:01:41.053Z,91.53
2022-09-01T08:02:41.055Z,91.82
2022-09-01T08:03:40.969Z,92.16
2022-09-01T08:04:40.959Z,92.59
2022-09-01T08:05:41.003Z,92.64
2022-09-01T08:06:41.602Z,90.7
2022-09-01T08:07:54.101Z,91.28
2022-09-01T08:08:40.965Z,92.16
2022-09-01T08:09:46.600Z,92.25
2022-09-01T08:10:40.985Z,90.94
2022-09-01T08:12:13.994Z,90.12
2022-09-01T08:12:41.091Z,89.97
2022-09-01T08:13:44.142Z,89.83
2022-09-01T08:14:41.935Z,89.87
2022-09-01T08:16:54.004Z,88.18
2022-09-01T08:17:56.593Z,88.42
2022-09-01T08:18:59.255Z,87.78
2022-09-01T08:19:41.347Z,88.03
2022-09-01T08:20:40.982Z,87.26
2022-09-01T08:21:40.985Z,86.52
2022-09-01T08:22:44.004Z,86.33
2022-09-01T08:23:40.994Z,86.62
2022-09-01T08:24:40.999Z,86.43
2022-09-01T08:25:40.996Z,85.65
2022-09-01T08:26:40.993Z,85.4
2022-09-01T08:27:40.997Z,85.4
2022-09-01T08:28:45.841Z,84.34
2022-09-01T08:29:41.002Z,83.56
2022-09-01T08:30:41.010Z,83.22
2022-09-01T08:31:41.202Z,82.63
2022-09-01T08:32:41.009Z,82.78
2022-09-01T08:33:43.889Z,82.53
2022-09-01T08:34:41.007Z,82.82
2022-09-01T08:35:41.015Z,82.24
2022-09-01T08:36:41.035Z,82.05
2022-09-01T08:37:41.028Z,81.57
2022-09-01T08:38:41.409Z,82.05
2022-09-01T08:39:41.064Z,82.97
2022-09-01T08:40:41.163Z,82.18
2022-09-01T08:41:41.072Z,82.77
2022-09-01T08:42:41.022Z,81.74
2022-09-01T08:43:41.033Z,81.84
2022-09-01T08:44:43.860Z,81.02
2022-09-01T08:45:41.033Z,81.45
2022-09-01T08:46:41.202Z,81.51
2022-09-01T08:49:46.781Z,80.38
2022-09-01T08:50:45.771Z,80.32
2022-09-01T08:51:45.781Z,80.23
2022-09-01T08:52:45.765Z,80.13
2022-09-01T08:53:45.774Z,80.48
2022-09-01T08:54:46.822Z,80.29
2022-09-01T08:55:45.779Z,80.32
2022-09-01T08:56:45.794Z,80.32
2022-09-01T08:57:45.782Z,80.38
2022-09-01T08:58:46.414Z,80.09
2022-09-01T08:59:45.784Z,80.42
2022-09-01T09:00:48.291Z,79.68
2022-09-01T09:01:45.897Z,79.68
2022-09-01T09:02:45.925Z,78.42
2022-09-01T09:03:45.789Z,78.52
2022-09-01T09:04:45.798Z,78.61
2022-09-01T09:05:45.790Z,77.41
2022-09-01T09:06:46.151Z,77.35
2022-09-01T09:07:45.793Z,77.35
2022-09-01T09:08:45.807Z,77.55
2022-09-01T09:09:53.960Z,77.12
2022-09-01T09:10:45.809Z,77.64
2022-09-01T09:11:45.928Z,77.31
2022-09-01T09:12:52.923Z,78.23
2022-09-01T09:13:45.811Z,77.8
2022-09-01T09:14:45.816Z,78.48
2022-09-01T09:15:45.942Z,78.77
2022-09-01T09:16:45.814Z,78.73
2022-09-01T09:17:48.949Z,78.73
2022-09-01T09:18:57.192Z,78.25
2022-09-01T09:19:45.827Z,77.9
2022-09-01T09:20:45.842Z,77.9
2022-09-01T09:21:45.822Z,78.83
2022-09-01T09:22:45.843Z,79.06
2022-09-01T09:23:46.129Z,79.51
2022-09-01T09:24:45.824Z,78.73
2022-09-01T09:25:45.834Z,78.83
2022-09-01T09:26:47.031Z,78.54
2022-09-01T09:27:45.867Z,78.25
2022-09-01T09:28:48.918Z,78.64
2022-09-01T09:29:47.811Z,78.89
2022-09-01T09:30:45.883Z,79.43
2022-09-01T09:31:48.114Z,80.21
2022-09-01T09:33:47.488Z,79.68
2022-09-01T09:34:02.165Z,79.68
2022-09-01T09:35:04.676Z,80.07
2022-09-01T09:36:02.083Z,80.07
2022-09-01T09:37:01.621Z,81.29
2022-09-01T09:38:01.644Z,81.91
2022-09-01T09:39:03.617Z,80.55
2022-09-01T09:40:01.845Z,80.07
2022-09-01T09:41:26.801Z,79.88
2022-09-01T09:42:01.677Z,79.58
2022-09-01T09:43:03.885Z,79.68
2022-09-01T09:44:01.753Z,79.68
2022-09-01T09:45:01.638Z,80.46
2022-09-01T09:46:23.082Z,80.11
2022-09-01T09:47:01.730Z,79.43
2022-09-01T09:48:01.655Z,79.53
2022-09-01T09:49:01.644Z,79.33
2022-09-01T09:50:02.173Z,78.79
2022-09-01T09:51:03.818Z,79.08
2022-09-01T09:52:01.652Z,79.47
2022-09-01T09:53:01.668Z,80.05
2022-09-01T09:54:01.650Z,79.24
2022-09-01T09:55:01.664Z,79.24
2022-09-01T09:56:01.675Z,80.11
2022-09-01T09:57:04.832Z,80.3
2022-09-01T09:58:01.690Z,80.3
2022-09-01T09:59:01.666Z,80.63
2022-09-01T10:00:03.646Z,80.44
2022-09-01T10:01:03.697Z,79.86
2022-09-01T10:02:01.670Z,80.01
2022-09-01T10:03:01.695Z,80.15
2022-09-01T10:04:02.220Z,79.37
2022-09-01T10:05:01.695Z,78.21
2022-09-01T10:06:03.367Z,78.31
2022-09-01T10:07:02.283Z,77.08
2022-09-01T10:08:07.471Z,76.4
2022-09-01T10:09:01.680Z,76.4
2022-09-01T10:10:01.684Z,76.31
2022-09-01T10:11:01.685Z,76.4
2022-09-01T10:12:01.689Z,76.69
2022-09-01T10:13:02.138Z,77.28
2022-09-01T10:14:01.692Z,76.15
2022-09-01T10:15:11.577Z,76.44
2022-09-01T10:16:01.855Z,77.06
2022-09-01T10:17:03.798Z,75.74
2022-09-01T10:18:31.726Z,75.02
2022-09-01T10:19:04.731Z,74.24
2022-09-01T10:20:01.711Z,74.05
2022-09-01T10:21:02.792Z,74.98
2022-09-01T10:22:01.709Z,74.63
2022-09-01T10:23:03.641Z,74.69
2022-09-01T10:24:20.964Z,76.01
2022-09-01T10:25:01.955Z,76.31
2022-09-01T10:26:02.226Z,77.08
2022-09-01T10:27:01.747Z,77.62
2022-09-01T10:28:01.751Z,77.72
2022-09-01T10:29:01.720Z,78.27
2022-09-01T10:30:21.598Z,78.09
2022-09-01T10:31:01.814Z,78.52
2022-09-01T10:32:38.345Z,78.52
2022-09-01T10:33:22.190Z,78.52
2022-09-01T10:34:10.464Z,79.06
2022-09-01T10:35:10.312Z,79.25
2022-09-01T10:36:13.693Z,79.6
2022-09-01T10:37:15.961Z,79.9
2022-09-01T10:38:14.336Z,81.05
2022-09-01T10:39:11.566Z,79.99
2022-09-01T10:40:10.489Z,79.85
2022-09-01T10:41:16.496Z,80.19
2022-09-01T10:42:10.720Z,80.77
2022-09-01T10:43:14.996Z,80.82
2022-09-01T10:44:10.558Z,81.6
2022-09-01T10:45:10.385Z,81.79
2022-09-01T10:46:15.571Z,81.93
2022-09-01T10:47:17.295Z,81.73
2022-09-01T10:48:13.194Z,82.08
2022-09-01T10:49:10.870Z,82.12
2022-09-01T10:50:13.303Z,82.57
2022-09-01T10:51:10.345Z,82.57
2022-09-01T10:52:30.616Z,82.08
2022-09-01T10:53:10.413Z,82.32
2022-09-01T10:54:10.341Z,82.12
2022-09-01T10:55:10.346Z,82.9
2022-09-01T10:56:28.262Z,81.15
2022-09-01T10:57:12.132Z,81.7
2022-09-01T10:59:38.951Z,81.02
2022-09-01T11:00:04.717Z,80.82
2022-09-01T11:01:17.035Z,81.54
2022-09-01T11:02:34.632Z,81.7
2022-09-01T11:03:35.996Z,81.02
2022-09-01T11:04:29.023Z,80.77
2022-09-01T11:05:28.009Z,80.77
2022-09-01T11:06:33.095Z,79.8
2022-09-01T11:08:14.584Z,80.82
2022-09-01T11:08:29.217Z,81.21
2022-09-01T11:09:28.783Z,81.21
2022-09-01T11:10:36.764Z,81.45
2022-09-01T11:11:28.791Z,80.87
2022-09-01T11:12:32.358Z,81.45
2022-09-01T11:13:28.887Z,81.83
2022-09-01T11:14:28.827Z,81.54
2022-09-01T11:15:29.110Z,81.73
2022-09-01T11:16:58.862Z,81.35
2022-09-01T11:17:28.920Z,81.48
2022-09-01T11:18:29.657Z,79.99
2022-09-01T11:19:29.698Z,78.83
2022-09-01T11:20:28.823Z,79.02
2022-09-01T11:21:28.806Z,79.7
2022-09-01T11:22:29.099Z,79.41
2022-09-01T11:23:30.131Z,79.25
2022-09-01T11:24:29.647Z,80.28
2022-09-01T11:25:38.562Z,79.9
2022-09-01T11:26:31.641Z,80.09
2022-09-01T11:27:33.180Z,80.09
2022-09-01T11:28:28.850Z,79.7
2022-09-01T11:29:28.838Z,79.9
2022-09-01T11:30:28.828Z,79.99
2022-09-01T11:31:29.073Z,79.45
2022-09-01T11:32:28.822Z,79.5
2022-09-01T11:33:28.848Z,79.35
2022-09-01T11:34:28.835Z,79.74
2022-09-01T11:35:29.136Z,79.84
2022-09-01T11:36:28.838Z,79.45
2022-09-01T11:37:31.842Z,79.25
2022-09-01T11:38:28.878Z,79.25
2022-09-01T11:39:28.842Z,79.06
2022-09-01T11:40:34.916Z,78.58
2022-09-01T11:41:28.842Z,79.06
2022-09-01T11:42:28.845Z,78.42
2022-09-01T11:43:29.566Z,78.29
2022-09-01T11:44:28.845Z,78.77
2022-09-01T11:45:29.034Z,78.67
2022-09-01T11:46:28.872Z,79.02
2022-09-01T11:47:28.876Z,78.97
2022-09-01T11:48:30.328Z,79.16
2022-09-01T11:49:28.863Z,78.77
2022-09-01T11:50:28.881Z,79.45
2022-09-01T11:51:28.860Z,79.84
2022-09-01T11:52:28.874Z,79.45
2022-09-01T11:53:28.888Z,79.55
2022-09-01T11:54:28.867Z,79.74
2022-09-01T11:55:28.874Z,80.13
2022-09-01T11:56:28.869Z,79.99
2022-09-01T11:57:28.876Z,80.96
2022-09-01T11:58:28.908Z,79.84
2022-09-01T11:59:31.571Z,79.32
2022-09-01T12:00:28.880Z,79.25
2022-09-01T12:01:28.880Z,80.32
2022-09-01T12:02:29.209Z,79.35
2022-09-01T12:03:29.580Z,79.06
2022-09-01T12:04:28.878Z,79.06
2022-09-01T12:05:28.891Z,79.84
2022-09-01T12:06:28.906Z,80.13
2022-09-01T12:07:28.891Z,80.32
2022-09-01T12:08:28.895Z,80.32
2022-09-01T12:09:28.892Z,79.93
2022-09-01T12:10:31.723Z,81
2022-09-01T12:11:28.901Z,80.71
2022-09-01T12:12:28.904Z,80.32
2022-09-01T12:13:28.912Z,80.32
2022-09-01T12:14:49.046Z,80.22
2022-09-01T12:15:28.906Z,79.84
2022-09-01T12:16:29.046Z,80.22
2022-09-01T12:17:28.910Z,80.03
2022-09-01T12:18:28.910Z,81
2022-09-01T12:19:28.916Z,80.9
2022-09-01T12:20:37.185Z,81.29
2022-09-01T12:21:31.683Z,80.13
2022-09-01T12:22:28.925Z,79.74
2022-09-01T12:23:28.931Z,79.84
2022-09-01T12:24:28.926Z,79.93
2022-09-01T12:25:28.928Z,80.42
2022-09-01T12:26:28.930Z,81.35
2022-09-01T12:27:28.932Z,81.54
2022-09-01T12:28:32.801Z,81.25
2022-09-01T12:29:33.798Z,81.73
2022-09-01T12:30:28.932Z,81.29
2022-09-01T12:31:29.171Z,81.39
2022-09-01T12:32:31.786Z,81.87
2022-09-01T12:33:28.935Z,81.64
2022-09-01T12:34:28.944Z,81.05
2022-09-01T12:35:28.939Z,81.45
2022-09-01T12:36:28.955Z,81.45
2022-09-01T12:37:28.957Z,82.03
2022-09-01T12:38:28.949Z,82.32
2022-09-01T12:39:28.953Z,82.45
2022-09-01T12:40:29.054Z,81.39
2022-09-01T12:41:31.138Z,80.57
2022-09-01T12:42:28.959Z,81
2022-09-01T12:43:29.828Z,80.52
2022-09-01T12:44:30.265Z,80.03
2022-09-01T12:45:29.062Z,80.03
2022-09-01T12:46:28.972Z,79.93
2022-09-01T12:47:29.797Z,79.84
2022-09-01T12:48:28.964Z,79.35
2022-09-01T12:49:31.198Z,79.32
2022-09-01T12:50:29.918Z,79.45
2022-09-01T12:51:33.816Z,78.58
2022-09-01T12:52:28.999Z,78.23
2022-09-01T12:53:30.534Z,77.55
2022-09-01T12:54:28.979Z,77.65
2022-09-01T12:55:58.999Z,78.23
2022-09-01T12:56:28.982Z,78.17
2022-09-01T12:57:28.988Z,78.17
2022-09-01T12:58:28.985Z,78.56
2022-09-01T12:59:39.948Z,77.92
2022-09-01T13:00:28.991Z,77.43
2022-09-01T13:01:29.333Z,76.46
2022-09-01T13:02:29.407Z,75.88
2022-09-01T13:03:29.007Z,76.75
2022-09-01T13:04:31.815Z,76.17
2022-09-01T13:05:39.550Z,76.01
2022-09-01T13:06:29.003Z,76.27
2022-09-01T13:07:30.187Z,76.4
2022-09-01T13:08:29.468Z,76.31
2022-09-01T13:09:29.023Z,75.92
2022-09-01T13:10:29.016Z,75.43
2022-09-01T13:12:07.557Z,76.5
2022-09-01T13:12:29.019Z,76.37
2022-09-01T13:13:29.019Z,76.07
2022-09-01T13:14:29.036Z,76.07
2022-09-01T13:15:32.100Z,76.27
2022-09-01T13:16:29.131Z,76.85
2022-09-01T13:17:29.027Z,76.85
2022-09-01T13:18:29.027Z,76.27
2022-09-01T13:19:32.808Z,76.32
2022-09-01T13:20:29.030Z,76.91
2022-09-01T13:21:29.165Z,77.59
2022-09-01T13:22:29.043Z,76.85
2022-09-01T13:23:29.058Z,77.01
2022-09-01T13:24:33.710Z,77.26
2022-09-01T13:25:29.407Z,76.78
2022-09-01T13:26:31.848Z,76.78
2022-09-01T13:27:29.379Z,76.58
2022-09-01T13:28:29.066Z,76.78
2022-09-01T13:29:29.070Z,77.16
2022-09-01T13:30:29.061Z,77.84
2022-09-01T13:31:32.956Z,78.42
2022-09-01T13:32:29.476Z,78.91
2022-09-01T13:34:21.590Z,79.06
2022-09-01T13:35:11.307Z,78.58
2022-09-01T13:36:44.770Z,78.09
2022-09-01T13:37:11.310Z,78.23
2022-09-01T13:38:11.315Z,77.9
2022-09-01T13:39:12.185Z,78.23
2022-09-01T13:40:11.730Z,77.94
2022-09-01T13:41:11.649Z,76.87
2022-09-01T13:42:11.400Z,76.78
2022-09-01T13:43:11.319Z,76.68
2022-09-01T13:44:11.332Z,76.78
2022-09-01T13:45:11.340Z,76.29
2022-09-01T13:46:11.450Z,76.58
2022-09-01T13:48:24.408Z,77.26
2022-09-01T13:50:13.998Z,77.84
2022-09-01T13:51:21.580Z,78.17
2022-09-01T13:52:21.244Z,77.55
2022-09-01T13:53:21.257Z,77.16
2022-09-01T13:54:21.261Z,77.36
2022-09-01T13:55:21.279Z,77.45
2022-09-01T13:56:21.250Z,77.51